Time;durP1;ratioP1;P1;durP2;ratioP2;P2;SDS_P1;SDS_P2;PMS_P1;PMS_P2;Temp;Humidity;BMP_temperature;BMP_pressure;BME280_temperature;BME280_humidity;BME280_pressure;Samples;Min_cycle;Max_cycle;Signal;HPM_P1;HPM_P2
2020/12/16 00:00:37;;;;;;;49.45;19.90;;;;;;;-0.09;59.54;100536.00;5033116;28;20073;-61
2020/12/16 00:03:02;;;;;;;41.58;19.17;;;;;;;-0.01;59.36;100547.22;5033093;28;20512;-63
2020/12/16 00:05:28;;;;;;;39.25;18.63;;;;;;;-0.46;59.49;100473.75;5032297;28;20124;-62
2020/12/16 00:07:54;;;;;;;42.20;18.48;;;;;;;0.05;59.50;100562.00;5015860;28;20061;-62
2020/12/16 00:10:19;;;;;;;43.40;19.70;;;;;;;-0.03;59.84;100561.31;5032420;28;20124;-63
2020/12/16 00:12:45;;;;;;;47.38;19.73;;;;;;;0.09;59.58;100568.91;5054509;28;20124;-61
2020/12/16 00:15:10;;;;;;;46.20;19.58;;;;;;;0.10;59.69;100567.13;5041763;28;20408;-63
2020/12/16 00:17:37;;;;;;;47.13;20.10;;;;;;;0.08;59.75;100567.19;5024272;28;20065;-58
2020/12/16 00:20:05;;;;;;;44.83;20.25;;;;;;;0.04;59.42;100572.56;5032419;28;20037;-63
2020/12/16 00:22:37;;;;;;;42.80;19.50;;;;;;;-0.01;59.97;100559.50;5046334;28;20026;-63
2020/12/16 00:25:03;;;;;;;45.85;19.80;;;;;;;0.04;59.81;100580.44;5032095;28;20087;-63
2020/12/16 00:27:29;;;;;;;43.42;18.88;;;;;;;0.01;59.84;100575.25;5031789;28;20034;-62
2020/12/16 00:29:55;;;;;;;47.97;18.83;;;;;;;0.03;60.19;100573.44;5031835;28;20038;-60
2020/12/16 00:32:20;;;;;;;39.85;18.35;;;;;;;-0.10;60.35;100572.91;5031372;28;20071;-61
2020/12/16 00:34:46;;;;;;;42.30;19.13;;;;;;;-0.07;60.62;100578.06;5021014;28;20040;-62
2020/12/16 00:37:11;;;;;;;36.70;17.70;;;;;;;-0.07;59.93;100580.72;5041718;28;20041;-62
2020/12/16 00:39:37;;;;;;;38.72;18.25;;;;;;;-0.02;60.57;100573.56;5031364;28;20205;-61
2020/12/16 00:42:07;;;;;;;47.60;19.33;;;;;;;-0.09;60.09;100550.94;5043788;28;20106;-62
2020/12/16 00:44:32;;;;;;;43.53;19.17;;;;;;;-0.01;59.96;100575.28;5031986;28;20382;-63
2020/12/16 00:46:59;;;;;;;44.95;19.60;;;;;;;-0.05;60.28;100573.63;5031765;28;20040;-61
2020/12/16 00:49:26;;;;;;;42.55;18.58;;;;;;;-0.14;60.21;100564.19;5030927;28;20025;-61
2020/12/16 00:51:52;;;;;;;45.10;19.17;;;;;;;-0.10;60.51;100580.78;5031488;28;20124;-62
2020/12/16 00:54:18;;;;;;;42.83;18.45;;;;;;;-0.09;60.38;100578.13;5013345;28;20029;-62
2020/12/16 00:56:43;;;;;;;47.88;20.15;;;;;;;-0.15;60.26;100584.41;5031591;28;20033;-64
2020/12/16 00:59:09;;;;;;;40.40;17.95;;;;;;;-0.51;60.23;100512.47;5030946;28;20132;-62
2020/12/16 01:01:34;;;;;;;50.72;20.48;;;;;;;-0.13;60.58;100567.72;5031624;28;20045;-61
2020/12/16 01:04:00;;;;;;;45.40;18.95;;;;;;;-0.64;60.36;100485.59;5031098;28;20496;-64
2020/12/16 01:06:25;;;;;;;43.35;18.30;;;;;;;-0.29;60.51;100549.66;5030981;28;20663;-61
2020/12/16 01:08:51;;;;;;;45.28;20.00;;;;;;;-0.16;60.45;100566.00;5031404;28;20044;-63
2020/12/16 01:11:16;;;;;;;47.25;20.60;;;;;;;-0.19;60.36;100572.22;5046078;28;20091;-61
2020/12/16 01:13:42;;;;;;;41.10;17.83;;;;;;;-0.19;60.49;100576.59;5031114;28;20048;-61
2020/12/16 01:16:07;;;;;;;43.97;20.33;;;;;;;-0.37;60.75;100536.66;5030964;28;20043;-58
2020/12/16 01:18:33;;;;;;;46.65;19.77;;;;;;;-0.27;60.74;100549.63;5031836;28;20045;-59
2020/12/16 01:20:58;;;;;;;47.22;19.23;;;;;;;-0.21;60.78;100566.13;5030516;28;20091;-62
2020/12/16 01:23:24;;;;;;;41.95;18.48;;;;;;;-0.19;60.82;100566.97;5030996;28;20444;-62
2020/12/16 01:25:49;;;;;;;45.80;18.90;;;;;;;-0.32;60.71;100553.22;5031585;28;20037;-60
2020/12/16 01:28:15;;;;;;;43.38;19.60;;;;;;;-0.26;60.78;100559.25;5030859;28;20037;-62
2020/12/16 01:30:40;;;;;;;46.70;19.23;;;;;;;-0.23;60.81;100570.56;5029240;28;20029;-62
2020/12/16 01:33:05;;;;;;;47.95;19.50;;;;;;;-0.21;60.79;100578.41;5031000;28;20064;-52
2020/12/16 01:35:31;;;;;;;40.53;18.55;;;;;;;-0.28;60.80;100561.06;5031530;28;20037;-62
2020/12/16 01:37:57;;;;;;;44.47;19.15;;;;;;;-0.23;60.74;100569.69;5031018;28;20033;-60
2020/12/16 01:40:23;;;;;;;39.67;17.70;;;;;;;-0.30;60.93;100558.44;5030525;28;20049;-61
2020/12/16 01:42:48;;;;;;;45.65;19.20;;;;;;;-0.22;60.43;100560.91;5030392;28;20048;-62
2020/12/16 01:45:16;;;;;;;44.70;19.38;;;;;;;-0.24;60.89;100555.69;5037201;28;20079;-62
2020/12/16 01:47:42;;;;;;;44.70;18.85;;;;;;;-0.42;60.77;100532.44;5036328;28;20036;-62
2020/12/16 01:50:09;;;;;;;40.97;18.13;;;;;;;-0.27;60.55;100562.78;5031922;28;20033;-60
2020/12/16 01:52:37;;;;;;;42.92;19.15;;;;;;;-0.30;60.88;100561.06;5035216;28;20033;-62
2020/12/16 01:55:04;;;;;;;50.45;19.83;;;;;;;-0.28;61.04;100555.78;5030632;28;20076;-61
2020/12/16 01:57:37;;;;;;;45.60;19.83;;;;;;;-0.27;61.31;100568.03;5030880;28;20159;-61
2020/12/16 02:00:09;;;;;;;47.28;19.42;;;;;;;-0.24;61.15;100573.22;5015092;28;20417;-60
2020/12/16 02:02:44;;;;;;;44.08;19.88;;;;;;;-0.19;60.67;100577.50;5042864;28;20068;-62
2020/12/16 02:05:12;;;;;;;;;;;;;;;-0.07;61.01;100571.06;5030962;28;20533;-60
2020/12/16 02:07:39;;;;;;;44.00;18.58;;;;;;;-0.17;60.18;100574.81;5030202;28;19924;-61
2020/12/16 02:10:04;;;;;;;44.35;19.40;;;;;;;-0.19;61.03;100577.50;5029806;28;20369;-62
2020/12/16 02:12:34;;;;;;;47.25;19.45;;;;;;;-0.20;60.80;100580.16;5044587;28;20037;-61
2020/12/16 02:15:00;;;;;;;50.85;19.63;;;;;;;-0.19;60.73;100585.38;5029734;28;20064;-62
2020/12/16 02:17:26;;;;;;;45.17;19.55;;;;;;;-0.16;60.65;100582.69;5029982;28;20080;-62
2020/12/16 02:19:57;;;;;;;46.42;20.70;;;;;;;-0.20;60.72;100581.03;5029988;28;20057;-62
2020/12/16 02:22:23;;;;;;;43.30;20.63;;;;;;;-0.17;61.16;100574.81;5029238;28;20164;-62
2020/12/16 02:24:57;;;;;;;45.42;20.10;;;;;;;-0.15;60.74;100573.88;5028715;28;20045;-59
2020/12/16 02:27:22;;;;;;;44.63;20.25;;;;;;;-0.20;61.11;100565.22;5029995;28;20038;-62
2020/12/16 02:29:48;;;;;;;48.30;20.08;;;;;;;-0.31;60.89;100551.44;5029922;28;20374;-60
2020/12/16 02:32:14;;;;;;;45.65;19.48;;;;;;;-0.17;61.20;100586.22;5029558;28;20033;-61
2020/12/16 02:34:40;;;;;;;44.25;18.73;;;;;;;-0.15;61.26;100579.13;5028561;28;20501;-61
2020/12/16 02:37:06;;;;;;;46.25;19.67;;;;;;;-0.27;60.85;100561.00;5029702;28;20120;-58
2020/12/16 02:39:32;;;;;;;40.63;18.77;;;;;;;-0.61;60.63;100490.78;5030221;28;20086;-62
2020/12/16 02:42:05;;;;;;;40.28;18.52;;;;;;;-0.12;61.37;100579.97;5029335;28;20032;-63
2020/12/16 02:44:31;;;;;;;43.83;18.85;;;;;;;-0.26;61.15;100554.81;5028780;28;20033;-61
2020/12/16 02:46:58;;;;;;;44.53;19.67;;;;;;;-0.12;61.25;100566.81;5029964;28;20389;-62
2020/12/16 02:49:23;;;;;;;43.50;19.02;;;;;;;-0.57;60.97;100495.06;5029145;28;20116;-61
2020/12/16 02:51:49;;;;;;;46.35;19.95;;;;;;;-0.17;60.55;100553.75;5027372;28;20167;-63
2020/12/16 02:54:14;;;;;;;37.10;17.73;;;;;;;-0.16;60.73;100572.16;5029093;28;20029;-62
2020/12/16 02:56:40;;;;;;;41.38;19.27;;;;;;;-0.15;61.21;100565.97;5028509;28;20052;-61
2020/12/16 02:59:05;;;;;;;41.78;19.15;;;;;;;-0.65;60.92;100474.19;5029047;28;20424;-53
2020/12/16 03:01:31;;;;;;;46.22;19.15;;;;;;;-0.15;60.92;100558.09;5024726;28;20094;-63
2020/12/16 03:03:57;;;;;;;41.05;18.88;;;;;;;-0.18;61.08;100550.25;5033058;28;20041;-60
2020/12/16 03:06:22;;;;;;;44.03;18.35;;;;;;;-0.23;61.28;100549.53;5028237;28;20116;-60
2020/12/16 03:08:48;;;;;;;41.83;17.98;;;;;;;-0.12;60.77;100556.28;5029284;28;20045;-62
2020/12/16 03:11:17;;;;;;;44.05;18.98;;;;;;;-0.54;61.18;100487.09;5029810;28;20041;-62
2020/12/16 03:13:43;;;;;;;41.60;18.45;;;;;;;-0.16;61.01;100553.72;5025908;28;20024;-62
2020/12/16 03:16:08;;;;;;;41.85;18.30;;;;;;;-0.16;60.72;100561.63;5030093;28;20044;-59
2020/12/16 03:18:34;;;;;;;42.10;18.77;;;;;;;-0.13;61.14;100554.53;5029267;28;20029;-62
2020/12/16 03:20:59;;;;;;;43.17;19.52;;;;;;;-0.17;60.90;100557.25;5028967;28;20127;-62
2020/12/16 03:23:25;;;;;;;40.13;19.27;;;;;;;-0.15;61.46;100547.56;5029220;28;20326;-61
2020/12/16 03:25:50;;;;;;;44.85;18.70;;;;;;;-0.19;61.12;100538.00;5028544;28;20099;-63
2020/12/16 03:28:16;;;;;;;45.55;19.05;;;;;;;-0.07;60.89;100559.66;5028779;28;20044;-63
2020/12/16 03:30:41;;;;;;;45.92;18.77;;;;;;;-0.06;61.45;100558.75;5028058;28;20038;-62
2020/12/16 03:33:07;;;;;;;48.47;18.63;;;;;;;-0.06;61.12;100562.25;5029276;28;20037;-61
2020/12/16 03:35:32;;;;;;;44.60;18.27;;;;;;;-0.06;60.73;100561.38;5028277;28;20206;-62
2020/12/16 03:37:58;;;;;;;43.10;19.35;;;;;;;-0.07;61.31;100560.53;5028758;28;20539;-63
2020/12/16 03:40:23;;;;;;;51.80;19.35;;;;;;;-0.26;61.09;100539.03;5028799;28;20109;-64
2020/12/16 03:42:48;;;;;;;39.95;18.00;;;;;;;-0.13;60.85;100581.72;5029223;28;20040;-62
2020/12/16 03:45:14;;;;;;;44.10;18.48;;;;;;;-0.17;61.49;100567.78;5010672;28;20080;-61
2020/12/16 03:47:47;;;;;;;47.92;19.15;;;;;;;-0.18;61.53;100567.81;5028493;28;20033;-61
2020/12/16 03:50:13;;;;;;;46.35;18.88;;;;;;;-0.30;61.62;100555.81;5028607;28;20037;-63
2020/12/16 03:52:38;;;;;;;48.63;19.38;;;;;;;-0.36;61.44;100559.47;5029111;28;20404;-62
2020/12/16 03:55:04;;;;;;;46.35;19.40;;;;;;;-0.40;61.67;100564.84;5028528;28;20091;-63
2020/12/16 03:57:31;;;;;;;47.85;18.52;;;;;;;-0.54;61.69;100552.00;5053037;28;20128;-61
2020/12/16 03:59:56;;;;;;;48.03;20.52;;;;;;;-0.54;61.99;100558.09;5028768;28;20129;-64
2020/12/16 04:02:22;;;;;;;45.40;18.88;;;;;;;-0.59;61.88;100545.09;5028681;28;20037;-63
2020/12/16 04:04:47;;;;;;;44.45;19.35;;;;;;;-0.62;62.13;100542.50;5028204;28;20037;-61
2020/12/16 04:07:13;;;;;;;46.63;20.13;;;;;;;-0.52;61.95;100558.94;5028471;28;20113;-62
2020/12/16 04:09:38;;;;;;;42.72;19.20;;;;;;;-0.50;62.28;100561.53;5057605;28;20044;-62
2020/12/16 04:12:03;;;;;;;42.55;18.90;;;;;;;-0.47;62.28;100578.13;5013080;28;20041;-61
2020/12/16 04:14:29;;;;;;;46.40;19.40;;;;;;;-0.66;61.96;100559.25;5042079;28;20025;-62
2020/12/16 04:16:56;;;;;;;40.63;19.17;;;;;;;-0.59;62.00;100573.13;5040111;28;20270;-62
2020/12/16 04:19:22;;;;;;;46.83;19.15;;;;;;;-0.58;61.94;100577.50;5028785;28;20064;-63
2020/12/16 04:21:47;;;;;;;43.85;20.00;;;;;;;-0.71;62.11;100568.16;5028154;28;20057;-61
2020/12/16 04:24:13;;;;;;;44.75;19.23;;;;;;;-0.59;62.23;100589.81;5027792;28;20037;-63
2020/12/16 04:26:38;;;;;;;44.95;18.63;;;;;;;-0.65;62.31;100586.44;5032140;28;20045;-63
2020/12/16 04:29:04;;;;;;;46.83;19.63;;;;;;;-1.14;62.62;100494.59;5032272;28;20033;-63
2020/12/16 04:31:30;;;;;;;42.53;19.17;;;;;;;-0.66;62.24;100588.19;5032087;28;20400;-61
2020/12/16 04:33:55;;;;;;;40.42;18.02;;;;;;;-0.69;62.86;100593.50;5047570;28;20113;-61
2020/12/16 04:36:21;;;;;;;49.28;19.83;;;;;;;-0.71;62.39;100589.22;5031075;28;20041;-61
2020/12/16 04:38:46;;;;;;;45.72;19.45;;;;;;;-0.72;62.58;100596.22;5020940;28;20064;-59
2020/12/16 04:41:12;;;;;;;50.10;20.55;;;;;;;-0.81;62.92;100584.13;5041551;28;20033;-64
2020/12/16 04:43:42;;;;;;;46.58;19.88;;;;;;;-0.75;62.92;100597.13;5031979;28;20115;-61
2020/12/16 04:46:14;;;;;;;43.30;17.65;;;;;;;-0.83;62.40;100583.28;5030462;28;20435;-55
2020/12/16 04:48:44;;;;;;;48.25;20.05;;;;;;;-0.80;62.46;100611.28;5031560;28;20038;-61
2020/12/16 04:51:10;;;;;;;46.28;18.98;;;;;;;-0.93;63.13;100579.13;5013888;28;20042;-61
2020/12/16 04:53:36;;;;;;;49.65;20.70;;;;;;;-0.84;63.06;100604.34;5036192;28;20045;-57
2020/12/16 04:56:03;;;;;;;45.60;19.77;;;;;;;-0.91;62.72;100593.97;5033770;28;20068;-62
2020/12/16 04:58:29;;;;;;;44.90;19.67;;;;;;;-0.87;62.72;100594.78;5031602;28;20902;-63
2020/12/16 05:00:55;;;;;;;43.47;19.20;;;;;;;-1.04;62.89;100571.47;5031178;28;20152;-63
2020/12/16 05:03:20;;;;;;;43.67;19.33;;;;;;;-0.89;62.67;100607.09;5031182;28;20560;-63
2020/12/16 05:05:46;;;;;;;47.38;19.67;;;;;;;-0.94;63.07;100601.06;5031131;28;20107;-62
2020/12/16 05:08:13;;;;;;;45.65;20.58;;;;;;;-1.01;62.78;100602.94;5030559;28;20039;-63
2020/12/16 05:10:42;;;;;;;45.70;21.00;;;;;;;-0.96;62.76;100608.13;5031196;28;20106;-63
2020/12/16 05:13:11;;;;;;;44.33;18.95;;;;;;;-0.93;62.65;100605.44;5040699;28;20076;-61
2020/12/16 05:15:39;;;;;;;46.08;18.58;;;;;;;-1.08;62.72;100589.06;5030966;28;20044;-64
2020/12/16 05:18:22;;;;;;;45.30;19.08;;;;;;;-0.96;63.61;100602.88;5031453;28;20055;-63
2020/12/16 05:20:52;;;;;;;40.40;18.23;;;;;;;-1.00;62.80;100609.94;5030763;28;20052;-59
2020/12/16 05:23:29;;;;;;;46.22;19.45;;;;;;;-1.01;62.77;100608.22;5030768;28;20230;-63
2020/12/16 05:25:58;;;;;;;46.53;18.75;;;;;;;-1.01;63.26;100616.94;5030983;28;20412;-64
2020/12/16 05:28:33;;;;;;;40.08;17.55;;;;;;;-1.10;62.69;100611.00;5030694;28;20084;-64
2020/12/16 05:31:02;;;;;;;45.70;18.50;;;;;;;-1.25;62.14;100593.78;5050788;28;20061;-64
2020/12/16 05:33:28;;;;;;;44.05;17.63;;;;;;;-1.26;62.79;100607.81;5037835;28;20044;-64
2020/12/16 05:35:55;;;;;;;40.42;17.55;;;;;;;-1.24;62.57;100603.38;5030996;28;20037;-63
2020/12/16 05:38:21;;;;;;;42.05;18.17;;;;;;;-1.27;62.42;100603.44;5030336;28;20079;-64
2020/12/16 05:40:47;;;;;;;40.50;17.42;;;;;;;-1.27;62.49;100613.97;5030964;28;20049;-64
2020/12/16 05:43:28;;;;;;;41.17;18.75;;;;;;;-1.33;62.99;100602.69;5030697;28;20095;-61
2020/12/16 05:45:54;;;;;;;44.97;18.98;;;;;;;-1.42;62.77;100596.72;5012549;28;20094;-63
2020/12/16 05:48:19;;;;;;;40.55;17.90;;;;;;;-1.32;62.22;100611.44;5030141;28;20041;-62
2020/12/16 05:50:53;;;;;;;44.65;19.40;;;;;;;-1.30;62.86;100613.13;5030442;28;20127;-64
2020/12/16 05:53:24;;;;;;;40.35;18.45;;;;;;;-1.32;62.74;100614.06;5030114;28;20037;-64
2020/12/16 05:55:57;;;;;;;43.33;17.70;;;;;;;-1.47;62.65;100586.28;5030486;28;20124;-57
2020/12/16 05:58:30;;;;;;;39.72;18.08;;;;;;;-1.38;62.70;100604.53;5030059;28;20049;-61
2020/12/16 06:01:00;;;;;;;42.30;18.20;;;;;;;-1.26;62.59;100613.94;5029277;28;20945;-63
2020/12/16 06:03:26;;;;;;;45.75;18.38;;;;;;;-1.25;62.35;100630.56;5030252;28;20033;-64
2020/12/16 06:05:57;;;;;;;42.60;18.38;;;;;;;-1.51;62.70;100575.00;5030111;28;20095;-62
2020/12/16 06:08:25;;;;;;;45.40;19.48;;;;;;;-1.20;62.08;100637.47;5029918;28;20051;-62
2020/12/16 06:10:51;;;;;;;41.67;19.05;;;;;;;-1.25;62.25;100626.19;5029584;28;20075;-62
2020/12/16 06:13:18;;;;;;;43.53;19.55;;;;;;;-1.22;62.03;100625.25;5029883;28;20249;-60
2020/12/16 06:16:01;;;;;;;46.95;19.42;;;;;;;-1.17;62.25;100626.88;5030055;28;20076;-62
2020/12/16 06:18:30;;;;;;;44.85;19.52;;;;;;;-1.16;62.72;100625.16;5026148;28;20026;-55
2020/12/16 06:20:56;;;;;;;41.17;18.13;;;;;;;-1.13;62.05;100637.34;5026599;28;20041;-59
2020/12/16 06:23:29;;;;;;;47.85;19.48;;;;;;;-1.09;62.70;100626.75;5029926;28;20052;-61
2020/12/16 06:25:57;;;;;;;42.05;18.52;;;;;;;-1.07;62.42;100632.00;5031867;28;20041;-58
2020/12/16 06:28:24;;;;;;;45.88;18.70;;;;;;;-1.57;62.71;100546.19;5029107;28;20087;-62
2020/12/16 06:30:54;;;;;;;46.50;18.65;;;;;;;-1.03;62.29;100631.88;5029568;28;20030;-58
2020/12/16 06:33:44;;;;;;;47.25;19.65;;;;;;;-0.96;62.42;100622.13;5027119;28;20033;-59
2020/12/16 06:36:11;;;;;;;41.13;18.23;;;;;;;-1.01;62.15;100631.88;5029498;28;20049;-60
2020/12/16 06:38:42;;;;;;;41.15;18.80;;;;;;;-1.00;62.41;100636.22;5029884;28;20025;-58
2020/12/16 06:41:17;;;;;;;43.20;19.33;;;;;;;-0.96;62.45;100647.56;5029346;28;20041;-62
2020/12/16 06:43:44;;;;;;;44.88;19.25;;;;;;;-0.95;62.33;100658.03;5029879;28;20037;-60
2020/12/16 06:46:30;;;;;;;47.13;19.45;;;;;;;-0.87;62.86;100652.63;5026345;28;20040;-61
2020/12/16 06:49:10;;;;;;;47.30;19.70;;;;;;;-0.92;62.23;100650.06;5028809;28;20967;-58
2020/12/16 06:51:41;;;;;;;41.97;18.33;;;;;;;-0.89;62.47;100647.38;5028999;28;20045;-52
2020/12/16 06:54:12;;;;;;;41.35;18.35;;;;;;;-0.88;62.44;100645.63;5029306;28;20037;-56
2020/12/16 06:56:39;;;;;;;41.35;18.52;;;;;;;-1.03;61.72;100631.88;5029365;28;20496;-56
2020/12/16 06:59:05;;;;;;;42.22;18.25;;;;;;;-0.94;61.98;100643.13;5029132;28;20053;-62
2020/12/16 07:01:31;;;;;;;44.22;18.45;;;;;;;-1.01;61.95;100643.22;5018593;28;20048;-60
2020/12/16 07:03:57;;;;;;;41.63;19.35;;;;;;;-0.97;62.22;100635.28;5029382;28;20040;-57
2020/12/16 07:06:28;;;;;;;45.08;20.23;;;;;;;-0.92;62.03;100649.22;5044349;28;20124;-61
2020/12/16 07:09:15;;;;;;;52.17;22.95;;;;;;;-0.88;62.22;100640.38;5039375;28;20580;-57
2020/12/16 07:11:54;;;;;;;52.80;23.00;;;;;;;-1.07;62.42;100635.47;5029392;28;20044;-60
2020/12/16 07:14:19;;;;;;;55.17;22.55;;;;;;;-0.94;62.18;100643.97;5028726;28;20036;-60
2020/12/16 07:16:47;;;;;;;49.65;22.45;;;;;;;-0.99;62.51;100637.06;5028720;28;20037;-60
2020/12/16 07:19:14;;;;;;;57.60;25.70;;;;;;;-1.04;62.59;100624.88;5028830;28;20469;-61
2020/12/16 07:21:42;;;;;;;54.13;24.02;;;;;;;-0.87;62.71;100652.63;5029563;28;20040;-56
2020/12/16 07:24:07;;;;;;;54.63;23.48;;;;;;;-0.84;62.46;100644.66;5028926;28;20041;-58
2020/12/16 07:26:56;;;;;;;57.95;24.35;;;;;;;-0.77;62.31;100650.66;5028945;28;20108;-61
2020/12/16 07:29:28;;;;;;;52.17;22.77;;;;;;;-0.74;62.25;100643.56;5027325;28;20037;-60
2020/12/16 07:32:04;;;;;;;55.00;22.85;;;;;;;-0.70;62.25;100654.91;5026857;28;20453;-60
2020/12/16 07:34:32;;;;;;;54.33;22.38;;;;;;;-0.73;61.89;100640.03;5027218;28;20028;-63
2020/12/16 07:37:03;;;;;;;56.58;23.15;;;;;;;-0.64;61.67;100660.03;5027789;28;20036;-60
2020/12/16 07:39:31;;;;;;;56.22;21.83;;;;;;;-0.64;61.58;100649.50;5027088;28;20084;-54
2020/12/16 07:41:58;;;;;;;52.13;21.55;;;;;;;-0.66;61.20;100660.97;5027157;28;20040;-61
2020/12/16 07:44:25;;;;;;;45.35;20.17;;;;;;;-0.67;61.50;100653.97;5026139;28;20033;-62
2020/12/16 07:46:51;;;;;;;43.50;19.58;;;;;;;-1.14;61.53;100570.78;5026581;28;20033;-58
2020/12/16 07:49:18;;;;;;;45.47;19.55;;;;;;;-0.69;61.28;100655.78;5026858;28;20492;-61
2020/12/16 07:51:44;;;;;;;49.17;20.58;;;;;;;-0.74;61.65;100653.22;5031236;28;20120;-61
2020/12/16 07:54:10;;;;;;;44.47;19.98;;;;;;;-0.81;61.61;100638.50;5010577;28;20179;-62
2020/12/16 07:56:36;;;;;;;40.67;19.63;;;;;;;-1.13;61.80;100596.16;5043222;28;20033;-54
2020/12/16 07:59:09;;;;;;;44.22;18.83;;;;;;;-0.77;62.06;100648.88;5028536;28;20080;-59
2020/12/16 08:01:34;;;;;;;39.83;16.67;;;;;;;-0.76;61.75;100647.16;5032944;28;20132;-60
2020/12/16 08:04:00;;;;;;;40.17;16.75;;;;;;;-0.74;61.95;100637.47;5029510;28;20560;-60
2020/12/16 08:06:25;;;;;;;37.03;16.92;;;;;;;-0.73;62.12;100634.78;5033189;28;20107;-62
2020/12/16 08:08:52;;;;;;;34.35;16.05;;;;;;;-0.74;61.49;100637.47;5027289;28;20120;-60
2020/12/16 08:11:27;;;;;;;33.58;15.80;;;;;;;-0.75;62.21;100636.56;5031801;28;20056;-61
2020/12/16 08:14:07;;;;;;;34.13;15.52;;;;;;;-0.67;62.00;100627.69;5031747;28;20037;-62
2020/12/16 08:16:34;;;;;;;36.28;15.23;;;;;;;-0.79;61.45;100623.53;5030539;28;20492;-59
2020/12/16 08:19:01;;;;;;;39.13;16.55;;;;;;;-0.66;61.70;100639.94;5032133;28;20045;-59
2020/12/16 08:21:26;;;;;;;32.45;15.43;;;;;;;-0.55;60.97;100629.19;5027646;28;20025;-59
2020/12/16 08:23:54;;;;;;;37.33;16.27;;;;;;;-0.44;60.77;100624.53;5029986;28;20048;-56
2020/12/16 08:26:21;;;;;;;32.55;15.13;;;;;;;-0.33;60.91;100619.03;5015851;28;20079;-60
2020/12/16 08:28:47;;;;;;;31.80;14.52;;;;;;;-0.63;60.38;100550.44;5033916;28;20120;-65
2020/12/16 08:31:17;;;;;;;30.75;15.25;;;;;;;-0.13;60.30;100630.88;5009380;28;20036;-62
2020/12/16 08:33:44;;;;;;;30.90;14.25;;;;;;;-0.04;59.75;100622.75;5015665;28;20044;-60
2020/12/16 08:36:15;;;;;;;32.10;14.95;;;;;;;-0.32;59.53;100552.34;5030991;28;20037;-63
2020/12/16 08:38:43;;;;;;;31.27;14.10;;;;;;;0.07;59.77;100615.47;5032917;28;20064;-65
2020/12/16 08:41:14;;;;;;;31.27;14.48;;;;;;;0.07;59.41;100588.28;5027767;28;20128;-61
2020/12/16 08:43:42;;;;;;;36.80;16.35;;;;;;;0.20;59.49;100604.63;5028718;28;20433;-62
2020/12/16 08:46:17;;;;;;;36.80;16.27;;;;;;;0.25;59.27;100605.41;5031997;28;20033;-61
2020/12/16 08:48:56;;;;;;;37.17;15.48;;;;;;;0.20;59.27;100597.59;5027827;28;20041;-66
2020/12/16 08:51:30;;;;;;;36.60;15.85;;;;;;;0.24;59.07;100607.16;5001534;28;20061;-65
2020/12/16 08:54:01;;;;;;;36.20;15.95;;;;;;;-0.23;59.25;100524.94;5035521;28;20241;-61
2020/12/16 08:56:40;;;;;;;33.80;15.25;;;;;;;0.26;59.39;100612.41;5031239;28;20132;-67
2020/12/16 08:59:18;;;;;;;36.10;15.65;;;;;;;0.25;59.36;100613.31;5030111;28;20141;-61
2020/12/16 09:01:48;;;;;;;35.50;15.15;;;;;;;0.25;59.41;100613.31;5028482;28;20128;-67
2020/12/16 09:04:29;;;;;;;33.35;15.32;;;;;;;0.20;59.64;100616.03;5030931;28;20497;-68
2020/12/16 09:07:07;;;;;;;37.85;17.77;;;;;;;0.25;59.80;100597.50;5028292;28;20030;-67
2020/12/16 09:09:35;;;;;;;40.00;16.77;;;;;;;0.23;59.22;100600.16;5039854;28;20068;-65
2020/12/16 09:12:01;;;;;;;37.38;16.98;;;;;;;0.23;59.35;100604.53;5026844;28;20054;-63
2020/12/16 09:14:27;;;;;;;36.58;16.30;;;;;;;0.19;59.36;100602.91;5028695;28;20057;-62
2020/12/16 09:16:53;;;;;;;41.58;16.88;;;;;;;0.26;59.35;100607.13;5028825;28;20060;-63
2020/12/16 09:19:24;;;;;;;38.17;16.40;;;;;;;0.18;59.32;100609.94;5024591;28;20398;-68
2020/12/16 09:21:51;;;;;;;39.83;18.08;;;;;;;0.06;59.74;100578.66;5043585;28;20048;-65
2020/12/16 09:24:21;;;;;;;40.58;17.77;;;;;;;0.18;59.88;100595.91;5027774;28;20041;-63
2020/12/16 09:26:48;;;;;;;42.03;20.15;;;;;;;0.20;59.43;100588.81;5030666;28;20037;-64
2020/12/16 09:29:34;;;;;;;40.90;17.85;;;;;;;0.22;60.30;100571.22;5025013;28;20393;-61
2020/12/16 09:32:11;;;;;;;37.60;16.70;;;;;;;0.22;59.59;100577.34;5023687;28;20382;-67
2020/12/16 09:34:43;;;;;;;33.92;16.67;;;;;;;0.27;59.78;100566.72;5035254;28;20116;-59
2020/12/16 09:37:14;;;;;;;38.17;16.02;;;;;;;0.27;59.40;100570.19;5034520;28;20041;-62
2020/12/16 09:39:41;;;;;;;34.75;16.95;;;;;;;0.26;59.57;100567.63;5030593;28;20037;-61
2020/12/16 09:42:12;;;;;;;33.05;15.05;;;;;;;0.11;59.47;100559.19;5028888;28;20494;-61
2020/12/16 09:44:38;;;;;;;27.10;13.05;;;;;;;-0.07;59.72;100497.34;5029465;28;20057;-63
2020/12/16 09:47:21;;;;;;;23.05;11.35;;;;;;;-0.02;60.05;100499.84;5030471;28;20029;-64
2020/12/16 09:50:00;;;;;;;23.98;11.27;;;;;;;0.46;59.99;100574.13;5026578;28;20077;-66
2020/12/16 09:52:31;;;;;;;24.35;11.30;;;;;;;0.51;60.09;100553.81;5010694;28;20036;-58
2020/12/16 09:54:58;;;;;;;23.58;11.27;;;;;;;0.61;59.39;100562.31;5010819;28;20037;-69
2020/12/16 09:57:24;;;;;;;21.00;9.15;;;;;;;0.68;59.32;100562.09;5026551;28;20047;-59
2020/12/16 09:59:50;;;;;;;24.77;9.43;;;;;;;0.10;59.11;100452.16;5035478;28;20053;-58
2020/12/16 10:02:17;;;;;;;17.98;8.68;;;;;;;0.68;59.09;100554.19;5028542;28;20042;-58
2020/12/16 10:04:44;;;;;;;18.00;8.10;;;;;;;0.73;59.29;100550.56;5024929;28;20037;-62
2020/12/16 10:07:10;;;;;;;16.10;7.82;;;;;;;0.57;59.43;100524.63;5012535;28;20056;-62
2020/12/16 10:09:35;;;;;;;14.90;7.13;;;;;;;0.60;59.43;100524.53;5040324;28;20041;-59
2020/12/16 10:12:04;;;;;;;13.18;6.47;;;;;;;0.70;59.51;100540.97;5047394;28;20059;-59
2020/12/16 10:14:30;;;;;;;14.38;7.30;;;;;;;0.77;59.51;100529.34;5028616;28;20034;-60
2020/12/16 10:16:56;;;;;;;12.23;6.70;;;;;;;0.76;59.69;100524.13;5028320;28;20330;-57
2020/12/16 10:19:22;;;;;;;17.92;7.57;;;;;;;0.48;59.75;100488.88;5027105;28;20493;-62
2020/12/16 10:21:48;;;;;;;13.48;6.60;;;;;;;0.71;59.71;100529.53;5029213;28;20385;-72
2020/12/16 10:24:16;;;;;;;16.88;8.05;;;;;;;0.75;59.89;100525.88;5028142;28;20039;-71
2020/12/16 10:26:46;;;;;;;21.95;7.38;;;;;;;0.81;59.64;100512.50;5029186;28;20033;-53
2020/12/16 10:29:12;;;;;;;18.58;7.57;;;;;;;0.84;59.64;100517.72;5029862;28;20123;-55
2020/12/16 10:31:37;;;;;;;17.33;6.97;;;;;;;0.85;59.81;100503.63;5024666;28;20034;-53
2020/12/16 10:34:03;;;;;;;20.42;7.53;;;;;;;0.87;59.94;100494.81;5043673;28;20030;-56
2020/12/16 10:36:30;;;;;;;14.25;7.15;;;;;;;0.38;59.73;100408.38;5033380;28;20148;-61
2020/12/16 10:38:55;;;;;;;15.07;7.25;;;;;;;1.00;59.61;100507.59;5032170;28;20060;-58
2020/12/16 10:41:21;;;;;;;14.77;7.30;;;;;;;0.96;59.65;100499.81;5021621;28;20528;-59
2020/12/16 10:43:46;;;;;;;12.52;6.35;;;;;;;0.89;59.58;100482.44;5030320;28;20029;-61
2020/12/16 10:46:12;;;;;;;17.60;6.70;;;;;;;0.93;59.92;100484.94;5029857;28;20037;-64
2020/12/16 10:48:38;;;;;;;15.65;7.47;;;;;;;0.74;60.11;100450.34;5030794;28;20087;-61
2020/12/16 10:51:03;;;;;;;16.90;7.32;;;;;;;1.01;60.07;100497.88;5027797;28;20409;-60
2020/12/16 10:53:29;;;;;;;19.75;7.85;;;;;;;0.98;60.01;100501.50;5030398;28;20476;-62
2020/12/16 10:55:56;;;;;;;16.42;7.32;;;;;;;0.82;60.09;100466.78;5035091;28;20132;-60
2020/12/16 10:58:22;;;;;;;15.13;8.18;;;;;;;0.99;59.74;100479.50;5024830;28;20067;-60
2020/12/16 11:00:47;;;;;;;19.42;8.38;;;;;;;0.93;59.92;100479.66;5029518;28;20087;-65
2020/12/16 11:03:13;;;;;;;17.00;7.95;;;;;;;1.07;60.57;100491.56;5026559;28;20488;-61
2020/12/16 11:05:39;;;;;;;18.92;8.02;;;;;;;0.69;60.19;100418.84;5030185;28;20136;-63
2020/12/16 11:08:04;;;;;;;17.65;7.97;;;;;;;1.17;60.10;100485.09;5028106;28;20038;-67
2020/12/16 11:10:30;;;;;;;16.42;7.57;;;;;;;1.24;60.04;100483.13;5023288;28;20066;-70
2020/12/16 11:12:55;;;;;;;19.65;8.75;;;;;;;0.92;59.94;100422.56;5032191;28;20028;-63
2020/12/16 11:15:21;;;;;;;19.10;9.13;;;;;;;1.30;59.73;100490.84;5036238;28;20120;-55